Time;durP1;ratioP1;P1;durP2;ratioP2;P2;SDS_P1;SDS_P2;PMS_P1;PMS_P2;Temp;Humidity;BMP_temperature;BMP_pressure;BME280_temperature;BME280_humidity;BME280_pressure;Samples;Min_cycle;Max_cycle;Signal;HPM_P1;HPM_P2
2024/01/12 00:16:35;;;;;;;10.88;7.60;;;;;;;20.16;46.79;100863.38;41399024;28;20061;-75
2024/01/12 00:36:35;;;;;;;10.30;7.75;;;;;;;20.21;46.78;100848.16;41390977;28;20409;-76
2024/01/12 00:56:36;;;;;;;9.15;7.30;;;;;;;20.18;46.47;100894.84;41393651;28;20113;-76
2024/01/12 01:16:37;;;;;;;9.57;7.55;;;;;;;20.13;46.52;100905.66;41397347;28;20042;-74
2024/01/12 01:36:37;;;;;;;9.43;7.13;;;;;;;20.18;46.31;100894.84;41391397;28;20498;-76
2024/01/12 01:56:39;;;;;;;8.93;7.13;;;;;;;20.19;46.53;100899.16;41388316;28;20050;-76
2024/01/12 02:16:40;;;;;;;9.65;6.90;;;;;;;20.25;46.16;100906.63;41264889;28;20122;-76
2024/01/12 02:36:41;;;;;;;9.23;6.55;;;;;;;20.21;46.14;100924.41;41380307;28;20054;-75
2024/01/12 02:56:41;;;;;;;9.32;6.60;;;;;;;20.21;46.14;100929.66;41381652;28;20069;-75
2024/01/12 03:16:43;;;;;;;8.70;6.57;;;;;;;20.22;45.78;100927.91;41408286;28;20052;-75
2024/01/12 03:36:44;;;;;;;7.82;6.28;;;;;;;20.22;45.97;100917.38;41373468;28;20049;-76
2024/01/12 03:56:44;;;;;;;7.80;5.93;;;;;;;20.21;45.69;100942.81;41308093;28;20132;-74
2024/01/12 04:16:46;;;;;;;8.00;6.10;;;;;;;20.22;45.78;100943.66;41397115;28;20582;-76
2024/01/12 04:36:47;;;;;;;7.78;5.75;;;;;;;20.23;45.32;100951.44;41396991;28;20136;-75
2024/01/12 04:56:48;;;;;;;7.68;5.95;;;;;;;20.39;44.74;100961.00;41391281;28;20421;-74
2024/01/12 05:16:49;;;;;;;7.60;5.93;;;;;;;20.70;45.01;100995.81;41383324;28;20089;-75
2024/01/12 05:36:49;;;;;;;10.75;6.20;;;;;;;21.13;44.17;101021.09;41343271;28;20042;-72
2024/01/12 05:56:50;;;;;;;23.45;8.43;;;;;;;20.72;42.63;101022.91;41314164;28;20072;-72
2024/01/12 06:16:52;;;;;;;15.35;6.97;;;;;;;21.05;43.32;101032.16;41393459;28;20046;-77
2024/01/12 06:36:53;;;;;;;15.27;6.60;;;;;;;21.09;43.92;101062.59;41397426;28;20081;-75
2024/01/12 06:56:56;;;;;;;12.25;6.47;;;;;;;21.22;42.99;101068.72;41346759;28;20588;-72
2024/01/12 07:16:56;;;;;;;13.55;6.47;;;;;;;21.38;43.39;101102.78;41345911;28;20038;-73
2024/01/12 07:36:57;;;;;;;14.18;6.53;;;;;;;21.41;43.15;101114.91;41363541;28;20038;-72
2024/01/12 07:56:58;;;;;;;12.10;6.38;;;;;;;21.47;42.66;101137.38;41376219;28;20039;-72
2024/01/12 08:16:58;;;;;;;12.05;6.18;;;;;;;21.44;43.43;101155.06;41397618;28;21011;-72
2024/01/12 08:37:00;;;;;;;10.93;6.50;;;;;;;21.46;43.09;101175.22;41399544;28;20052;-70
2024/01/12 08:57:00;;;;;;;10.80;6.68;;;;;;;21.55;43.83;101190.41;41405663;28;20129;-73
2024/01/12 09:17:10;;;;;;;9.27;6.55;;;;;;;21.62;43.25;101210.19;41414813;28;20409;-73
2024/01/12 09:37:10;;;;;;;9.90;6.70;;;;;;;21.64;43.42;101204.81;41390216;28;20074;-73
2024/01/12 09:57:15;;;;;;;11.45;6.93;;;;;;;21.87;42.86;101190.94;41371982;28;20080;-70
2024/01/12 10:17:16;;;;;;;11.73;7.27;;;;;;;21.81;43.00;101203.69;41364807;28;20106;-72
2024/01/12 10:37:18;;;;;;;10.15;7.30;;;;;;;21.84;42.70;101187.66;41377477;28;20061;-71
2024/01/12 10:57:21;;;;;;;10.13;7.47;;;;;;;21.84;42.64;101179.75;41393285;28;20066;-72
2024/01/12 11:17:29;;;;;;;12.15;7.22;;;;;;;21.79;42.54;101168.66;41377224;28;20038;-71
2024/01/12 11:37:29;;;;;;;10.25;7.03;;;;;;;21.87;42.95;101159.31;41406222;28;20061;-72
2024/01/12 11:57:29;;;;;;;9.73;6.95;;;;;;;21.85;42.83;101147.16;41411973;28;20062;-68
2024/01/12 12:17:31;;;;;;;8.90;6.80;;;;;;;21.80;42.85;101136.94;41420183;28;20049;-69
2024/01/12 12:37:31;;;;;;;10.88;7.05;;;;;;;21.82;42.58;101127.13;41397930;28;20164;-73
2024/01/12 12:57:32;;;;;;;7.80;6.00;;;;;;;21.74;43.03;101118.91;41369060;28;20592;-71
2024/01/12 13:17:32;;;;;;;8.82;6.60;;;;;;;21.82;45.60;101100.75;41306482;28;20410;-70
2024/01/12 13:37:33;;;;;;;8.00;6.00;;;;;;;21.69;44.31;101082.31;41303099;28;20099;-71
2024/01/12 13:57:33;;;;;;;8.50;5.78;;;;;;;21.48;44.08;101081.94;41347974;28;20042;-71
2024/01/12 14:17:35;;;;;;;16.00;6.40;;;;;;;21.29;38.44;101087.63;41322762;28;20057;-70
2024/01/12 14:37:36;;;;;;;6.05;4.40;;;;;;;21.62;40.21;101061.75;41401266;28;20041;-72
2024/01/12 14:57:39;;;;;;;9.27;5.03;;;;;;;21.56;41.34;101069.13;41389962;28;20097;-71
2024/01/12 15:17:40;;;;;;;6.45;4.15;;;;;;;21.35;42.31;101071.41;41422487;28;20053;-73
2024/01/12 15:37:41;;;;;;;7.65;4.18;;;;;;;21.24;43.23;101090.56;41416712;28;20040;-73
2024/01/12 15:57:41;;;;;;;6.43;4.10;;;;;;;21.17;44.08;101098.97;41413440;28;20149;-76
2024/01/12 16:17:41;;;;;;;6.72;4.03;;;;;;;21.11;44.58;101089.69;41413464;28;20046;-72
2024/01/12 16:37:42;;;;;;;6.75;3.75;;;;;;;21.09;44.74;101075.75;41428519;28;20108;-77
2024/01/12 16:57:42;;;;;;;4.63;3.55;;;;;;;21.09;45.07;101099.47;41415454;28;20614;-76
2024/01/12 17:17:43;;;;;;;4.90;3.70;;;;;;;20.99;44.84;101112.38;41393176;28;20043;-76
2024/01/12 17:37:43;;;;;;;8.13;5.50;;;;;;;21.20;45.95;101123.31;41375188;28;20049;-75
2024/01/12 17:57:43;;;;;;;7.35;5.80;;;;;;;21.19;46.64;101107.59;41388622;28;20129;-78
2024/01/12 18:17:44;;;;;;;11.70;6.15;;;;;;;21.14;46.09;101100.03;41312697;28;20053;-75
2024/01/12 18:37:44;;;;;;;6.60;4.85;;;;;;;21.09;45.37;101104.72;41391683;28;20048;-75
2024/01/12 18:57:45;;;;;;;8.82;4.43;;;;;;;21.07;45.88;101109.28;41352710;28;20057;-73
2024/01/12 19:17:45;;;;;;;5.53;4.10;;;;;;;20.96;45.50;101091.53;41361633;28;20125;-70
2024/01/12 19:37:46;;;;;;;9.27;4.50;;;;;;;20.82;46.31;101088.94;41356761;28;20054;-72
2024/01/12 19:57:47;;;;;;;7.00;4.70;;;;;;;20.71;46.14;101076.44;41359706;28;20046;-72
2024/01/12 20:17:49;;;;;;;15.35;5.38;;;;;;;20.76;46.45;101050.69;41408265;28;20100;-75
2024/01/12 20:37:49;;;;;;;10.13;5.72;;;;;;;20.69;46.73;101052.00;41368145;28;20060;-75
2024/01/12 20:57:49;;;;;;;9.30;5.05;;;;;;;20.43;44.26;101067.69;41377169;28;20112;-75
2024/01/12 21:17:50;;;;;;;8.23;5.00;;;;;;;20.47;44.90;101075.28;41379719;28;20057;-75
2024/01/12 21:37:52;;;;;;;8.43;5.15;;;;;;;20.40;45.67;101046.84;41321626;28;20062;-74
2024/01/12 21:57:53;;;;;;;5.97;4.88;;;;;;;20.31;46.26;101032.47;41401714;28;20050;-73
2024/01/12 22:17:53;;;;;;;8.45;4.93;;;;;;;20.24;46.84;101008.38;41292836;28;20053;-73
2024/01/12 22:37:54;;;;;;;7.65;4.70;;;;;;;20.18;47.40;101023.69;41398975;28;20506;-73
2024/01/12 22:57:54;;;;;;;7.57;4.60;;;;;;;20.10;47.22;101008.38;41399071;28;20052;-74
2024/01/12 23:17:55;;;;;;;5.13;4.38;;;;;;;20.16;47.35;101015.88;41411363;28;20042;-73
2024/01/12 23:37:59;;;;;;;5.82;4.68;;;;;;;20.12;47.22;100985.50;41438998;28;20033;-74
2024/01/12 23:58:00;;;;;;;5.03;4.13;;;;;;;20.15;47.53;100985.28;41404455;28;20069;-72
